createdAt,value
2023-01-25T00:14:42.400Z,6.55
2023-01-25T00:34:41.634Z,6.56
2023-01-25T00:54:42.453Z,6.55
2023-01-25T01:14:42.450Z,6.55
2023-01-25T01:34:41.660Z,6.55
2023-01-25T01:54:42.335Z,6.55
2023-01-25T02:14:42.438Z,6.55
2023-01-25T02:34:42.416Z,6.55
2023-01-25T03:14:42.426Z,6.55
2023-01-25T03:34:42.413Z,6.55
2023-01-25T03:54:42.415Z,6.55
2023-01-25T04:14:44.519Z,6.55
2023-01-25T04:34:42.442Z,6.55
2023-01-25T04:54:42.443Z,6.55
2023-01-25T05:14:42.423Z,6.55
2023-01-25T05:34:41.915Z,6.54
2023-01-25T05:54:42.431Z,6.54
2023-01-25T06:14:41.655Z,6.54
2023-01-25T06:34:42.290Z,6.54
2023-01-25T06:54:41.939Z,6.54
2023-01-25T07:14:42.449Z,6.54
2023-01-25T07:34:42.453Z,6.54
2023-01-25T07:54:42.445Z,6.54
2023-01-25T08:14:42.461Z,6.53
2023-01-25T08:34:42.456Z,6.54
2023-01-25T08:54:42.449Z,6.53
2023-01-25T09:14:42.426Z,6.53
2023-01-25T09:34:42.455Z,6.53
2023-01-25T09:54:46.881Z,6.53
2023-01-25T10:14:41.669Z,6.53
2023-01-25T10:34:55.262Z,6.52
2023-01-25T11:14:41.681Z,6.52
2023-01-25T11:34:42.442Z,6.52
2023-01-25T11:54:42.346Z,6.52
2023-01-25T12:14:42.459Z,6.52
2023-01-25T12:54:42.459Z,6.51
2023-01-25T13:14:42.341Z,6.51
2023-01-25T13:54:42.471Z,6.51
2023-01-25T14:14:42.338Z,6.51
2023-01-25T14:34:41.935Z,6.51
2023-01-25T14:54:42.338Z,6.5
2023-01-25T15:14:42.472Z,6.5
2023-01-25T15:34:41.953Z,6.5
2023-01-25T15:54:51.699Z,6.5
2023-01-25T16:14:41.943Z,6.5
2023-01-25T16:54:42.504Z,6.49
2023-01-25T17:14:42.468Z,6.49
2023-01-25T17:34:42.475Z,6.49
2023-01-25T17:54:42.488Z,6.49
2023-01-25T18:14:42.490Z,6.49
2023-01-25T18:34:42.507Z,6.49
2023-01-25T18:54:41.715Z,6.48
2023-01-25T19:14:42.490Z,6.48
2023-01-25T19:34:42.497Z,6.48
2023-01-25T19:54:42.504Z,6.48
2023-01-25T20:14:42.551Z,6.48
2023-01-25T20:54:42.498Z,6.47
2023-01-25T21:14:41.727Z,6.47
2023-01-25T21:34:42.500Z,6.47
2023-01-25T21:54:42.504Z,6.47
2023-01-25T22:34:42.513Z,6.47
2023-01-25T22:54:42.501Z,6.46
2023-01-25T23:14:42.513Z,6.46
2023-01-25T23:34:42.517Z,6.46
2023-01-25T23:54:42.564Z,6.46
